createdAt,value
2023-01-19T00:00:00.139Z,96.5
2023-01-19T00:05:00.117Z,96.5
2023-01-19T00:10:00.124Z,96.6
2023-01-19T00:15:00.125Z,96.6
2023-01-19T00:20:00.142Z,96.6
2023-01-19T00:25:00.131Z,96.6
2023-01-19T00:30:00.199Z,96.6
2023-01-19T00:35:00.090Z,96.7
2023-01-19T00:40:00.183Z,96.8
2023-01-19T00:45:00.136Z,96.6
2023-01-19T00:50:00.179Z,96.5
2023-01-19T00:55:00.130Z,96.5
2023-01-19T01:00:00.240Z,96.5
2023-01-19T01:05:00.127Z,96.4
2023-01-19T01:10:00.153Z,96.5
2023-01-19T01:15:00.120Z,96.4
2023-01-19T01:20:00.162Z,96.3
2023-01-19T01:25:00.126Z,96.3
2023-01-19T01:30:00.196Z,96.3
2023-01-19T01:35:00.121Z,96.3
2023-01-19T01:40:00.180Z,96.1
2023-01-19T01:45:00.117Z,95.8
2023-01-19T01:50:00.133Z,95.7
2023-01-19T01:55:00.137Z,95.8
2023-01-19T02:00:00.211Z,95.8
2023-01-19T02:05:00.144Z,95.9
2023-01-19T02:10:00.150Z,95.9
2023-01-19T02:15:00.153Z,95.8
2023-01-19T02:20:00.141Z,95.8
2023-01-19T02:25:00.140Z,95.8
2023-01-19T02:30:00.146Z,95.7
2023-01-19T02:35:00.145Z,95.5
2023-01-19T02:40:00.147Z,95.5
2023-01-19T02:45:00.185Z,95.6
2023-01-19T02:50:00.131Z,95.5
2023-01-19T02:55:00.137Z,95.4
2023-01-19T03:00:00.189Z,95.3
2023-01-19T03:05:00.120Z,95.4
2023-01-19T03:10:00.112Z,95.2
2023-01-19T03:15:00.125Z,95
2023-01-19T03:20:00.140Z,95
2023-01-19T03:25:00.116Z,94.8
2023-01-19T03:30:00.140Z,94.8
2023-01-19T03:35:00.122Z,94.7
2023-01-19T03:40:00.166Z,94.6
2023-01-19T03:45:00.132Z,94.3
2023-01-19T03:50:00.133Z,94.2
2023-01-19T03:55:00.139Z,94.1
2023-01-19T04:00:00.236Z,93.8
2023-01-19T04:05:00.123Z,93.8
2023-01-19T04:10:00.106Z,93.8
2023-01-19T04:15:00.132Z,93.8
2023-01-19T04:20:00.142Z,93.9
2023-01-19T04:25:00.359Z,93.8
2023-01-19T04:30:00.143Z,94
2023-01-19T04:35:00.176Z,93.8
2023-01-19T04:40:00.136Z,93.8
2023-01-19T04:45:00.141Z,93.8
2023-01-19T04:50:00.151Z,94
2023-01-19T04:55:00.160Z,94.1
2023-01-19T05:00:00.190Z,94.2
2023-01-19T05:05:00.128Z,94.2
2023-01-19T05:10:00.123Z,94.1
2023-01-19T05:15:00.131Z,94.2
2023-01-19T05:20:00.183Z,94.1
2023-01-19T05:25:00.105Z,94.1
2023-01-19T05:30:00.143Z,94.2
2023-01-19T05:35:00.162Z,94.2
2023-01-19T05:40:00.163Z,94
2023-01-19T05:45:00.201Z,94
2023-01-19T05:50:00.146Z,94.1
2023-01-19T05:55:00.142Z,94
2023-01-19T06:00:00.167Z,94.1
2023-01-19T06:05:00.128Z,94
2023-01-19T06:10:00.123Z,93.9
2023-01-19T06:15:00.129Z,93.9
2023-01-19T06:20:00.129Z,93.7
2023-01-19T06:25:00.121Z,93.7
2023-01-19T06:30:00.173Z,93.7
2023-01-19T06:35:00.170Z,93.8
2023-01-19T06:40:00.148Z,93.8
2023-01-19T06:45:00.130Z,93.9
2023-01-19T06:50:00.174Z,94
2023-01-19T06:55:00.156Z,94.1
2023-01-19T07:00:00.178Z,94.2
2023-01-19T07:05:00.128Z,94.2
2023-01-19T07:10:00.130Z,94.1
2023-01-19T07:15:00.140Z,94
2023-01-19T07:20:00.157Z,93.9
2023-01-19T07:25:00.129Z,93.8
2023-01-19T07:30:00.173Z,93.7
2023-01-19T07:35:00.117Z,93.6
2023-01-19T07:40:00.151Z,93.2
2023-01-19T07:45:00.163Z,93.4
2023-01-19T07:50:00.180Z,93.4
2023-01-19T07:55:00.148Z,93.4
2023-01-19T08:00:00.218Z,93.1
2023-01-19T08:05:00.112Z,93.4
2023-01-19T08:10:00.153Z,93.3
2023-01-19T08:15:00.108Z,93.3
2023-01-19T08:20:00.121Z,93.4
2023-01-19T08:25:00.127Z,93.3
2023-01-19T08:30:00.180Z,93.3
2023-01-19T08:35:00.123Z,93.3
2023-01-19T08:40:00.174Z,93.7
2023-01-19T08:45:00.128Z,93.4
2023-01-19T08:50:00.139Z,92
2023-01-19T08:55:00.127Z,91.6
2023-01-19T09:00:00.162Z,91.3
2023-01-19T09:05:00.121Z,90.5
2023-01-19T09:10:00.133Z,90
2023-01-19T09:15:00.173Z,89.6
2023-01-19T09:20:00.173Z,90.1
2023-01-19T09:25:00.181Z,89.8
2023-01-19T09:30:00.137Z,90
2023-01-19T09:35:00.134Z,90.7
2023-01-19T09:40:00.315Z,90.7
2023-01-19T09:45:00.115Z,90.7
2023-01-19T09:50:00.166Z,90.6
2023-01-19T09:55:00.184Z,90.5
2023-01-19T10:00:00.210Z,90.2
2023-01-19T10:05:00.133Z,90.2
2023-01-19T10:10:00.136Z,90
2023-01-19T10:15:00.132Z,89.2
2023-01-19T10:20:00.191Z,86.5
2023-01-19T10:25:00.154Z,85.9
2023-01-19T10:30:00.186Z,85.8
2023-01-19T10:35:00.097Z,86.1
2023-01-19T10:40:00.196Z,85.1
2023-01-19T10:45:00.149Z,84.5
2023-01-19T10:50:00.113Z,84.1
2023-01-19T10:55:00.213Z,83.7
2023-01-19T11:00:00.148Z,84.2
2023-01-19T11:05:00.171Z,84
2023-01-19T11:10:00.140Z,81.6
2023-01-19T11:15:00.130Z,81.2
2023-01-19T11:20:00.184Z,82.2
2023-01-19T11:25:00.149Z,81.5
2023-01-19T11:30:00.156Z,81.5
2023-01-19T11:35:00.122Z,81.7
2023-01-19T11:40:00.319Z,79.6
2023-01-19T11:45:00.104Z,79.9
2023-01-19T11:50:00.133Z,80.1
2023-01-19T11:55:00.181Z,81.2
2023-01-19T12:00:00.256Z,81.5
2023-01-19T12:05:00.135Z,79.9
2023-01-19T12:10:00.149Z,81.5
2023-01-19T12:15:00.162Z,82.4
2023-01-19T12:20:00.166Z,79.9
2023-01-19T12:25:00.152Z,79.2
2023-01-19T12:30:00.157Z,79.5
2023-01-19T12:35:00.116Z,79.2
2023-01-19T12:40:00.161Z,80
2023-01-19T12:45:00.128Z,80.1
2023-01-19T12:50:00.134Z,81.5
2023-01-19T12:55:00.146Z,82.5
2023-01-19T13:00:00.212Z,83.2
2023-01-19T13:05:00.128Z,84.7
2023-01-19T13:10:00.149Z,85.2
2023-01-19T13:15:00.401Z,85.3
2023-01-19T13:20:00.136Z,85.9
2023-01-19T13:25:00.370Z,85.3
2023-01-19T13:30:00.587Z,84.2
2023-01-19T13:35:00.379Z,82.9
2023-01-19T13:40:00.496Z,83
2023-01-19T13:45:00.139Z,83
2023-01-19T13:50:00.413Z,83.4
2023-01-19T13:55:02.745Z,82.9
2023-01-19T14:00:00.154Z,82.6
2023-01-19T14:05:00.138Z,82.9
2023-01-19T14:10:00.158Z,82.7
2023-01-19T14:15:00.176Z,83.6
2023-01-19T14:20:00.214Z,82.5
2023-01-19T14:25:00.216Z,83.8
2023-01-19T14:30:00.147Z,83.9
2023-01-19T14:35:00.154Z,83.5
2023-01-19T14:40:00.228Z,83.9
2023-01-19T14:45:00.124Z,84.2
2023-01-19T14:50:00.164Z,83.8
2023-01-19T14:55:00.131Z,84.4
2023-01-19T15:00:00.159Z,84.3
2023-01-19T15:05:00.135Z,83.8
2023-01-19T15:10:00.134Z,83.3
2023-01-19T15:15:00.144Z,83.9
2023-01-19T15:20:00.143Z,84
2023-01-19T15:25:00.192Z,84.4
2023-01-19T15:30:00.185Z,84.7
2023-01-19T15:35:00.121Z,84.1
2023-01-19T15:40:00.255Z,83.7
2023-01-19T15:45:00.110Z,83.8
2023-01-19T15:50:00.129Z,84.5
2023-01-19T15:55:00.117Z,84.2
2023-01-19T16:00:00.136Z,84.1
2023-01-19T16:05:00.112Z,84.5
2023-01-19T16:10:00.151Z,84.7
2023-01-19T16:15:00.107Z,84.6
2023-01-19T16:20:00.139Z,85.2
2023-01-19T16:25:00.112Z,85.5
2023-01-19T16:30:00.119Z,85.4
2023-01-19T16:35:00.093Z,85.9
2023-01-19T16:40:00.161Z,86.2
2023-01-19T16:45:00.134Z,86.2
2023-01-19T16:50:00.130Z,86.3
2023-01-19T16:55:00.145Z,86.5
2023-01-19T17:00:00.203Z,86.8
2023-01-19T17:05:00.134Z,87
2023-01-19T17:10:00.129Z,87.5
2023-01-19T17:15:00.178Z,88
2023-01-19T17:20:00.228Z,88.5
2023-01-19T17:25:00.111Z,88.7
2023-01-19T17:30:00.204Z,88.9
2023-01-19T17:35:00.159Z,89.2
2023-01-19T17:40:00.160Z,89.3
2023-01-19T17:45:00.124Z,89.3
2023-01-19T17:50:00.285Z,89.6
2023-01-19T17:55:00.141Z,89.7
2023-01-19T18:00:00.173Z,89.7
2023-01-19T18:05:00.109Z,89.8
2023-01-19T18:10:01.106Z,90
2023-01-19T18:15:00.144Z,89.3
2023-01-19T18:20:00.137Z,90
2023-01-19T18:25:00.147Z,90.1
2023-01-19T18:30:00.158Z,90.1
2023-01-19T18:35:00.107Z,90.1
2023-01-19T18:40:00.166Z,90.2
2023-01-19T18:45:00.106Z,90.2
2023-01-19T18:50:00.158Z,90.2
2023-01-19T18:55:00.194Z,90.3
2023-01-19T19:00:00.172Z,90.4
2023-01-19T19:05:00.124Z,90.5
2023-01-19T19:10:00.177Z,90.7
2023-01-19T19:15:00.193Z,90.9
2023-01-19T19:20:00.140Z,91.2
2023-01-19T19:25:00.118Z,91.6
2023-01-19T19:30:00.119Z,91.9
2023-01-19T19:35:00.138Z,92.2
2023-01-19T19:40:00.193Z,92.5
2023-01-19T19:45:00.143Z,92.7
2023-01-19T19:50:00.143Z,92.9
2023-01-19T19:55:00.136Z,93.1
2023-01-19T20:00:00.205Z,93.3
2023-01-19T20:05:00.215Z,93.5
2023-01-19T20:10:00.169Z,93.6
2023-01-19T20:15:00.121Z,93.7
2023-01-19T20:20:00.197Z,93.7
2023-01-19T20:25:00.151Z,93.8
2023-01-19T20:30:00.164Z,93.9
2023-01-19T20:35:00.129Z,93.9
2023-01-19T20:40:00.161Z,94
2023-01-19T20:45:00.175Z,94
2023-01-19T20:50:00.119Z,94.1
2023-01-19T20:55:00.138Z,94.1
2023-01-19T21:00:00.157Z,94
2023-01-19T21:05:00.157Z,94.1
2023-01-19T21:10:00.141Z,94.1
2023-01-19T21:15:00.143Z,94.1
2023-01-19T21:20:00.166Z,94.1
2023-01-19T21:25:00.143Z,94.2
2023-01-19T21:30:00.173Z,94.2
2023-01-19T21:35:00.133Z,94.2
2023-01-19T21:40:00.195Z,94.2
2023-01-19T21:45:00.143Z,94.2
2023-01-19T21:50:00.143Z,94.2
2023-01-19T21:55:00.148Z,94.2
2023-01-19T22:00:00.186Z,94.2
2023-01-19T22:05:00.129Z,94.3
2023-01-19T22:10:00.186Z,94.4
2023-01-19T22:15:00.127Z,94.4
2023-01-19T22:20:00.128Z,94.4
2023-01-19T22:25:00.107Z,94.4
2023-01-19T22:30:00.174Z,94.4
2023-01-19T22:35:00.097Z,94.4
2023-01-19T22:40:00.148Z,94.4
2023-01-19T22:45:00.111Z,94.4
2023-01-19T22:50:00.111Z,94.4
2023-01-19T22:55:00.145Z,94.4
2023-01-19T23:00:00.212Z,94.4
2023-01-19T23:05:00.109Z,94.1
2023-01-19T23:10:00.163Z,94.4
2023-01-19T23:15:00.134Z,94.4
2023-01-19T23:20:00.153Z,94.4
2023-01-19T23:25:00.145Z,94.4
2023-01-19T23:30:00.145Z,94.4
2023-01-19T23:35:00.128Z,94.3
2023-01-19T23:40:00.191Z,94.3
2023-01-19T23:45:00.111Z,94.3
2023-01-19T23:50:00.109Z,94.2
2023-01-19T23:55:00.100Z,94.2
